Time;durP1;ratioP1;P1;durP2;ratioP2;P2;SDS_P1;SDS_P2;PMS_P1;PMS_P2;Temp;Humidity;BMP_temperature;BMP_pressure;BME280_temperature;BME280_humidity;BME280_pressure;Samples;Min_cycle;Max_cycle;Signal;HPM_P1;HPM_P2
2022/03/10 00:01:19;;;;;;;;;;;18.70;57.50;;;;;;5033558;28;1048;-66
2022/03/10 00:03:45;;;;;;;;;;;18.70;57.50;;;;;;5033607;28;1958;-66
2022/03/10 00:06:10;;;;;;;;;;;18.70;57.50;;;;;;5033518;28;694;-67
2022/03/10 00:08:36;;;;;;;;;;;18.70;57.50;;;;;;5033193;28;1193;-67
2022/03/10 00:11:01;;;;;;;;;;;18.70;57.50;;;;;;5033545;28;870;-67
2022/03/10 00:13:30;;;;;;;;;;;18.70;57.60;;;;;;5033357;28;784;-67
2022/03/10 00:15:55;;;;;;;;;;;18.70;57.60;;;;;;5015757;28;1453;-67
2022/03/10 00:18:21;;;;;;;;;;;18.70;57.60;;;;;;5033332;28;1479;-67
2022/03/10 00:20:46;;;;;;;;;;;18.70;57.60;;;;;;5015435;28;1127;-68
2022/03/10 00:23:12;;;;;;;;;;;18.70;57.60;;;;;;5015481;28;1898;-68
2022/03/10 00:25:37;;;;;;;;;;;18.70;57.60;;;;;;5015691;28;923;-67
2022/03/10 00:28:03;;;;;;;;;;;18.70;57.60;;;;;;5033137;28;839;-67
2022/03/10 00:30:28;;;;;;;;;;;18.70;57.60;;;;;;5032555;28;1198;-67
2022/03/10 00:32:54;;;;;;;;;;;18.70;57.60;;;;;;5015007;28;908;-67
2022/03/10 00:35:20;;;;;;;;;;;18.70;57.70;;;;;;5033087;28;1402;-67
2022/03/10 00:37:46;;;;;;;;;;;18.70;57.70;;;;;;5015555;28;847;-67
2022/03/10 00:40:12;;;;;;;;;;;18.60;57.60;;;;;;5015157;28;1210;-67
2022/03/10 00:42:38;;;;;;;;;;;18.60;57.60;;;;;;5015559;28;1959;-67
2022/03/10 00:45:04;;;;;;;;;;;18.60;57.60;;;;;;5033032;28;875;-67
2022/03/10 00:47:30;;;;;;;;;;;18.60;57.70;;;;;;5033018;28;878;-67
2022/03/10 00:49:55;;;;;;;;;;;18.60;57.70;;;;;;5032507;28;1208;-67
2022/03/10 00:52:21;;;;;;;;;;;18.60;57.70;;;;;;5032852;28;757;-67
2022/03/10 00:54:46;;;;;;;;;;;18.60;57.70;;;;;;5032997;28;1039;-67
2022/03/10 00:57:12;;;;;;;;;;;18.60;57.70;;;;;;5032961;28;863;-67
2022/03/10 00:59:37;;;;;;;;;;;18.60;57.70;;;;;;5032773;28;1196;-67
2022/03/10 01:02:03;;;;;;;;;;;18.60;57.70;;;;;;5033028;28;1175;-67
2022/03/10 01:04:28;;;;;;;;;;;18.60;57.70;;;;;;5032972;28;1910;-67
2022/03/10 01:06:53;;;;;;;;;;;18.60;57.70;;;;;;5032895;28;791;-67
2022/03/10 01:09:19;;;;;;;;;;;18.60;57.70;;;;;;5032628;28;1195;-67
2022/03/10 01:11:44;;;;;;;;;;;18.60;57.90;;;;;;5032851;28;938;-67
2022/03/10 01:14:10;;;;;;;;;;;18.60;57.80;;;;;;5032810;28;998;-67
2022/03/10 01:16:36;;;;;;;;;;;18.60;57.80;;;;;;5032752;28;1515;-69
2022/03/10 01:19:01;;;;;;;;;;;18.60;57.80;;;;;;5014801;28;1528;-67
2022/03/10 01:21:27;;;;;;;;;;;18.60;57.80;;;;;;5032695;28;815;-67
2022/03/10 01:23:53;;;;;;;;;;;18.60;57.80;;;;;;5032711;28;1898;-67
2022/03/10 01:26:18;;;;;;;;;;;18.60;57.80;;;;;;5015110;28;1010;-68
2022/03/10 01:28:43;;;;;;;;;;;18.60;57.80;;;;;;5032415;28;1203;-68
2022/03/10 01:31:09;;;;;;;;;;;18.60;57.80;;;;;;5015235;28;851;-67
2022/03/10 01:33:34;;;;;;;;;;;18.60;57.80;;;;;;5032542;28;688;-67
2022/03/10 01:36:00;;;;;;;;;;;18.60;57.90;;;;;;5032736;28;1441;-67
2022/03/10 01:38:25;;;;;;;;;;;18.50;57.80;;;;;;5014805;28;884;-67
2022/03/10 01:40:51;;;;;;;;;;;18.60;57.90;;;;;;4998120;28;1344;-67
2022/03/10 01:43:16;;;;;;;;;;;18.50;57.80;;;;;;5034267;28;1902;-68
2022/03/10 01:45:42;;;;;;;;;;;18.50;57.80;;;;;;5018657;28;1026;-66
2022/03/10 01:48:07;;;;;;;;;;;18.50;57.80;;;;;;5036226;28;708;-67
2022/03/10 01:50:33;;;;;;;;;;;18.50;57.80;;;;;;5035791;28;1300;-68
2022/03/10 01:52:59;;;;;;;;;;;18.50;57.90;;;;;;5035383;28;804;-67
2022/03/10 01:55:25;;;;;;;;;;;18.60;57.90;;;;;;5017644;28;816;-68
2022/03/10 01:57:50;;;;;;;;;;;18.50;57.90;;;;;;5017910;28;862;-66
2022/03/10 02:00:16;;;;;;;;;;;18.50;57.90;;;;;;5035448;28;1200;-69
2022/03/10 02:02:41;;;;;;;;;;;18.50;57.90;;;;;;5018176;28;1914;-69
2022/03/10 02:05:07;;;;;;;;;;;18.50;57.90;;;;;;5018254;28;1046;-69
2022/03/10 02:10:16;;;;;;;;;;;18.50;57.90;;;;;;5035785;28;1276;-69
2022/03/10 02:12:51;;;;;;;;;;;18.50;57.90;;;;;;5017560;28;1086;-67
2022/03/10 02:18:01;;;;;;;;;;;18.50;57.90;;;;;;5020923;28;848;-66
2022/03/10 02:20:27;;;;;;;;;;;18.50;58.00;;;;;;5017460;28;1289;-66
2022/03/10 02:22:52;;;;;;;;;;;18.50;58.00;;;;;;5017938;28;1955;-66
2022/03/10 02:25:19;;;;;;;;;;;18.50;58.00;;;;;;5035501;28;1021;-67
2022/03/10 02:27:48;;;;;;;;;;;18.50;57.90;;;;;;5017802;28;887;-66
2022/03/10 02:30:13;;;;;;;;;;;18.50;57.90;;;;;;5035287;28;1314;-66
2022/03/10 02:32:39;;;;;;;;;;;18.50;58.00;;;;;;5035341;28;949;-67
2022/03/10 02:35:04;;;;;;;;;;;18.50;57.90;;;;;;5035318;28;965;-67
2022/03/10 02:37:30;;;;;;;;;;;18.50;57.90;;;;;;5035007;28;1539;-67
2022/03/10 02:39:55;;;;;;;;;;;18.50;57.90;;;;;;5035131;28;1287;-68
2022/03/10 02:42:20;;;;;;;;;;;18.50;57.90;;;;;;5035300;28;1026;-67
2022/03/10 02:44:46;;;;;;;;;;;18.50;57.90;;;;;;5035209;28;1894;-67
2022/03/10 02:47:12;;;;;;;;;;;18.50;57.90;;;;;;5001152;28;1222;-67
2022/03/10 02:49:39;;;;;;;;;;;18.50;57.90;;;;;;5034662;28;1286;-67
2022/03/10 02:52:04;;;;;;;;;;;18.50;57.90;;;;;;5017203;28;1022;-68
2022/03/10 02:54:30;;;;;;;;;;;18.50;58.00;;;;;;5016661;28;1288;-68
2022/03/10 02:56:56;;;;;;;;;;;18.50;57.90;;;;;;5035217;28;851;-67
2022/03/10 02:59:21;;;;;;;;;;;18.50;57.90;;;;;;5034561;28;1212;-68
2022/03/10 03:01:47;;;;;;;;;;;18.50;57.90;;;;;;5033760;28;1283;-68
2022/03/10 03:04:12;;;;;;;;;;;18.50;57.90;;;;;;5034725;28;1894;-67
2022/03/10 03:06:37;;;;;;;;;;;18.50;57.90;;;;;;5016984;28;820;-67
2022/03/10 03:09:03;;;;;;;;;;;18.50;57.90;;;;;;5016649;28;1226;-68
2022/03/10 03:11:28;;;;;;;;;;;18.50;57.90;;;;;;5034705;28;778;-68
2022/03/10 03:13:54;;;;;;;;;;;18.50;58.00;;;;;;5034853;28;796;-67
2022/03/10 03:16:19;;;;;;;;;;;18.50;58.00;;;;;;5034794;28;1410;-67
2022/03/10 03:18:45;;;;;;;;;;;18.50;57.90;;;;;;5034364;28;1414;-68
2022/03/10 03:21:10;;;;;;;;;;;18.50;57.90;;;;;;5033366;28;1065;-66
2022/03/10 03:23:35;;;;;;;;;;;18.50;57.90;;;;;;5009678;28;1902;-66
2022/03/10 03:26:01;;;;;;;;;;;18.50;57.90;;;;;;5033389;28;1229;-67
2022/03/10 03:28:26;;;;;;;;;;;18.50;57.90;;;;;;5015315;28;1193;-66
2022/03/10 03:30:52;;;;;;;;;;;18.50;57.90;;;;;;5033532;28;1307;-67
2022/03/10 03:33:17;;;;;;;;;;;18.50;57.90;;;;;;5033740;28;1066;-67
2022/03/10 03:35:43;;;;;;;;;;;18.50;57.90;;;;;;5016409;28;1100;-67
2022/03/10 03:38:08;;;;;;;;;;;18.50;57.80;;;;;;5016179;28;939;-67
2022/03/10 03:40:34;;;;;;;;;;;18.50;57.80;;;;;;5016118;28;1283;-67
2022/03/10 03:43:00;;;;;;;;;;;18.50;57.80;;;;;;5033976;28;1898;-68
2022/03/10 03:45:25;;;;;;;;;;;18.50;57.80;;;;;;5034031;28;1259;-67
2022/03/10 03:47:51;;;;;;;;;;;18.50;57.80;;;;;;5033850;28;1302;-67
2022/03/10 03:50:16;;;;;;;;;;;18.50;57.80;;;;;;5033579;28;1196;-68
2022/03/10 03:52:42;;;;;;;;;;;18.50;57.80;;;;;;5033847;28;891;-70
2022/03/10 03:55:08;;;;;;;;;;;18.50;57.70;;;;;;5034024;28;950;-71
2022/03/10 03:57:33;;;;;;;;;;;18.60;57.70;;;;;;5016147;28;898;-71
2022/03/10 03:59:59;;;;;;;;;;;18.60;57.70;;;;;;5033544;28;1227;-70
2022/03/10 04:02:24;;;;;;;;;;;18.60;57.60;;;;;;5016096;28;966;-70
2022/03/10 04:04:50;;;;;;;;;;;18.60;57.50;;;;;;5033619;28;1963;-70
2022/03/10 04:07:15;;;;;;;;;;;18.70;57.50;;;;;;5032588;28;883;-70
2022/03/10 04:09:41;;;;;;;;;;;18.70;57.40;;;;;;5033295;28;1201;-70
2022/03/10 04:12:06;;;;;;;;;;;18.70;57.30;;;;;;5016072;28;797;-70
2022/03/10 04:14:32;;;;;;;;;;;18.80;57.30;;;;;;5033603;28;942;-70
2022/03/10 04:16:57;;;;;;;;;;;18.80;57.20;;;;;;5033364;28;1238;-71
2022/03/10 04:19:23;;;;;;;;;;;18.80;57.10;;;;;;5033272;28;1282;-70
2022/03/10 04:21:48;;;;;;;;;;;18.80;57.00;;;;;;5015505;28;1133;-70
2022/03/10 04:24:14;;;;;;;;;;;18.80;57.00;;;;;;5015855;28;1902;-70
2022/03/10 04:26:40;;;;;;;;;;;18.90;57.00;;;;;;5015696;28;862;-70
2022/03/10 04:29:05;;;;;;;;;;;18.90;57.00;;;;;;5033286;28;1215;-70
2022/03/10 04:31:30;;;;;;;;;;;18.90;56.90;;;;;;5033271;28;784;-70
2022/03/10 04:33:56;;;;;;;;;;;18.90;56.90;;;;;;5033574;28;971;-70
2022/03/10 04:36:21;;;;;;;;;;;18.90;56.80;;;;;;5033017;28;1112;-70
2022/03/10 04:38:47;;;;;;;;;;;18.90;56.80;;;;;;5015278;28;1286;-70
2022/03/10 04:41:13;;;;;;;;;;;18.90;56.80;;;;;;5033381;28;889;-71
2022/03/10 04:43:38;;;;;;;;;;;18.90;56.80;;;;;;5033311;28;1903;-70
2022/03/10 04:46:04;;;;;;;;;;;18.90;56.80;;;;;;5033188;28;875;-70
2022/03/10 04:48:29;;;;;;;;;;;18.90;56.80;;;;;;5032927;28;776;-70
2022/03/10 04:50:55;;;;;;;;;;;18.90;57.40;;;;;;5041631;22;3707;-68
2022/03/10 04:53:21;;;;;;;;;;;18.90;56.80;;;;;;5017406;28;1094;-67
2022/03/10 04:55:46;;;;;;;;;;;18.90;56.70;;;;;;5013467;28;822;-68
2022/03/10 04:58:11;;;;;;;;;;;18.90;56.70;;;;;;5013484;28;938;-67
2022/03/10 05:00:37;;;;;;;;;;;18.90;56.70;;;;;;5013124;28;1221;-68
2022/03/10 05:03:02;;;;;;;;;;;18.90;56.70;;;;;;5013227;28;1910;-67
2022/03/10 05:05:28;;;;;;;;;;;18.90;56.70;;;;;;5012002;28;878;-68
2022/03/10 05:07:53;;;;;;;;;;;18.90;56.70;;;;;;5011927;28;874;-67
2022/03/10 05:10:19;;;;;;;;;;;18.90;56.70;;;;;;5013026;28;1302;-68
2022/03/10 05:12:44;;;;;;;;;;;18.90;56.70;;;;;;5012188;28;777;-67
2022/03/10 05:15:09;;;;;;;;;;;18.90;56.70;;;;;;5012789;28;1198;-68
2022/03/10 05:17:35;;;;;;;;;;;18.90;56.70;;;;;;4994455;28;1108;-68
2022/03/10 05:20:00;;;;;;;;;;;18.90;56.70;;;;;;4997453;28;1197;-67
2022/03/10 05:22:34;;;;;;;;;;;18.90;56.70;;;;;;4997392;28;1258;-68
2022/03/10 05:24:59;;;;;;;;;;;18.90;56.70;;;;;;4996198;28;1906;-68
2022/03/10 05:27:24;;;;;;;;;;;18.90;56.70;;;;;;4997478;28;887;-67
2022/03/10 05:29:50;;;;;;;;;;;18.90;56.70;;;;;;4997273;28;1205;-68
2022/03/10 05:32:18;;;;;;;;;;;18.90;56.70;;;;;;4997304;28;1021;-67
2022/03/10 05:34:44;;;;;;;;;;;18.90;56.70;;;;;;4997407;28;686;-68
2022/03/10 05:37:09;;;;;;;;;;;18.90;56.70;;;;;;4997196;28;1175;-68
2022/03/10 05:39:35;;;;;;;;;;;18.90;56.70;;;;;;4997013;28;1294;-67
2022/03/10 05:42:00;;;;;;;;;;;18.90;56.60;;;;;;4997152;28;903;-67
2022/03/10 05:44:26;;;;;;;;;;;18.90;56.60;;;;;;4997080;28;1894;-67
2022/03/10 05:46:51;;;;;;;;;;;19.00;56.60;;;;;;4997004;28;946;-68
2022/03/10 05:49:16;;;;;;;;;;;19.00;56.60;;;;;;4995297;28;1189;-67
2022/03/10 05:51:42;;;;;;;;;;;19.00;56.60;;;;;;4996835;28;911;-67
2022/03/10 05:54:07;;;;;;;;;;;19.00;56.60;;;;;;4996945;28;962;-67
2022/03/10 05:56:33;;;;;;;;;;;19.00;56.60;;;;;;4996947;28;1022;-68
2022/03/10 05:58:58;;;;;;;;;;;19.00;56.60;;;;;;4996604;28;865;-68
2022/03/10 06:01:23;;;;;;;;;;;19.00;56.60;;;;;;4997180;28;1224;-68
2022/03/10 06:03:49;;;;;;;;;;;19.00;56.50;;;;;;4996350;28;1957;-67
2022/03/10 06:06:14;;;;;;;;;;;19.00;56.50;;;;;;4996774;28;800;-68
2022/03/10 06:08:40;;;;;;;;;;;19.00;56.50;;;;;;4996480;28;884;-67
2022/03/10 06:11:07;;;;;;;;;;;19.00;56.50;;;;;;4995449;28;1172;-68
2022/03/10 06:13:32;;;;;;;;;;;19.00;56.50;;;;;;4978986;28;1797;-68
2022/03/10 06:15:58;;;;;;;;;;;19.00;56.50;;;;;;4993588;28;1277;-67
2022/03/10 06:18:23;;;;;;;;;;;19.00;56.50;;;;;;4994229;28;1096;-68
2022/03/10 06:20:49;;;;;;;;;;;19.00;56.50;;;;;;4995173;28;1200;-68
2022/03/10 06:23:14;;;;;;;;;;;19.00;56.50;;;;;;4994026;28;1976;-67
2022/03/10 06:25:40;;;;;;;;;;;19.00;56.50;;;;;;4994266;28;895;-66
2022/03/10 06:28:06;;;;;;;;;;;19.00;56.50;;;;;;4994537;28;895;-65
2022/03/10 06:30:31;;;;;;;;;;;19.00;56.50;;;;;;4993912;28;1590;-67
2022/03/10 06:32:58;;;;;;;;;;;19.00;56.50;;;;;;4995097;28;1065;-64
2022/03/10 06:35:23;;;;;;;;;;;19.00;56.50;;;;;;4995219;28;1128;-65
2022/03/10 06:37:48;;;;;;;;;;;19.00;56.50;;;;;;4995321;28;1014;-65
2022/03/10 06:40:15;;;;;;;;;;;19.00;56.50;;;;;;4994740;28;1193;-64
2022/03/10 06:42:40;;;;;;;;;;;19.00;57.10;;;;;;4994940;28;1902;-64
2022/03/10 06:45:06;;;;;;;;;;;19.00;56.50;;;;;;4995000;28;1025;-70
2022/03/10 06:47:31;;;;;;;;;;;19.00;56.50;;;;;;4993871;28;1198;-68
2022/03/10 06:49:56;;;;;;;;;;;19.00;56.50;;;;;;4994604;28;2236;-67
2022/03/10 06:52:22;;;;;;;;;;;19.00;56.50;;;;;;4986139;28;2848;-66
2022/03/10 06:54:47;;;;;;;;;;;19.00;56.50;;;;;;4995162;28;820;-66
2022/03/10 06:57:14;;;;;;;;;;;19.00;56.50;;;;;;4995017;28;858;-65
2022/03/10 06:59:40;;;;;;;;;;;19.00;56.50;;;;;;4995514;28;1283;-66
2022/03/10 07:02:05;;;;;;;;;;;19.00;56.50;;;;;;4994199;28;799;-65
2022/03/10 07:04:31;;;;;;;;;;;19.00;56.40;;;;;;4994992;28;1969;-66
2022/03/10 07:06:56;;;;;;;;;;;19.00;54.10;;;;;;4995399;28;910;-65
2022/03/10 07:09:22;;;;;;;;;;;19.00;52.20;;;;;;4990584;28;2196;-65
2022/03/10 07:11:47;;;;;;;;;;;18.90;51.70;;;;;;4994704;28;1107;-64
2022/03/10 07:14:13;;;;;;;;;;;18.90;52.30;;;;;;4995031;28;1159;-66
2022/03/10 07:16:38;;;;;;;;;;;18.90;52.40;;;;;;4995042;28;1174;-67
2022/03/10 07:19:08;;;;;;;;;;;18.90;52.50;;;;;;4993962;28;1261;-67
2022/03/10 07:21:34;;;;;;;;;;;18.90;52.40;;;;;;4994982;28;919;-67
2022/03/10 07:23:59;;;;;;;;;;;18.90;52.50;;;;;;4993192;28;1906;-65
2022/03/10 07:26:25;;;;;;;;;;;18.90;52.80;;;;;;4994713;28;680;-66
2022/03/10 07:28:50;;;;;;;;;;;18.90;53.00;;;;;;4994079;28;770;-67
2022/03/10 07:31:16;;;;;;;;;;;18.90;53.30;;;;;;4994324;28;1193;-65
2022/03/10 07:33:42;;;;;;;;;;;19.00;53.50;;;;;;4994326;28;784;-65
2022/03/10 07:36:08;;;;;;;;;;;19.00;53.70;;;;;;4994712;28;1203;-66
2022/03/10 07:38:33;;;;;;;;;;;19.00;53.70;;;;;;4993962;28;823;-65
2022/03/10 07:40:58;;;;;;;;;;;19.00;54.30;;;;;;4994419;28;1288;-67
2022/03/10 07:43:24;;;;;;;;;;;19.00;53.80;;;;;;4994386;28;1962;-65
2022/03/10 07:45:50;;;;;;;;;;;19.00;53.90;;;;;;4992699;28;1232;-66
2022/03/10 07:48:17;;;;;;;;;;;19.00;54.00;;;;;;4994148;28;1266;-66
2022/03/10 07:50:43;;;;;;;;;;;19.00;54.10;;;;;;4994220;28;1212;-66
2022/03/10 07:53:08;;;;;;;;;;;19.00;54.20;;;;;;4993404;28;923;-65
2022/03/10 07:55:34;;;;;;;;;;;19.10;54.80;;;;;;4994304;28;1335;-67
2022/03/10 07:57:59;;;;;;;;;;;19.00;54.30;;;;;;4994508;28;780;-66
2022/03/10 08:00:25;;;;;;;;;;;19.00;54.40;;;;;;4993818;28;1249;-67
2022/03/10 08:02:50;;;;;;;;;;;19.10;54.60;;;;;;4994020;28;1914;-67
2022/03/10 08:05:16;;;;;;;;;;;19.10;54.60;;;;;;4993005;28;899;-67
2022/03/10 08:07:41;;;;;;;;;;;19.30;54.50;;;;;;4994425;28;839;-67
2022/03/10 08:10:08;;;;;;;;;;;19.40;54.40;;;;;;4994182;28;1216;-67
2022/03/10 08:12:33;;;;;;;;;;;19.50;54.30;;;;;;4993276;28;853;-67
2022/03/10 08:14:59;;;;;;;;;;;19.60;54.00;;;;;;4993177;28;1296;-67
2022/03/10 08:17:25;;;;;;;;;;;19.70;54.50;;;;;;4994180;28;1168;-67
2022/03/10 08:19:51;;;;;;;;;;;19.80;53.70;;;;;;4993992;28;1330;-67
2022/03/10 08:22:16;;;;;;;;;;;19.90;53.50;;;;;;4994130;28;784;-67
2022/03/10 08:24:42;;;;;;;;;;;20.10;53.30;;;;;;4994206;28;1960;-67
2022/03/10 08:27:08;;;;;;;;;;;20.20;53.10;;;;;;4994076;28;872;-67
2022/03/10 08:29:33;;;;;;;;;;;20.20;52.90;;;;;;4992559;28;1318;-67
2022/03/10 08:31:59;;;;;;;;;;;20.30;52.80;;;;;;4994308;28;800;-67
2022/03/10 08:34:24;;;;;;;;;;;20.40;52.60;;;;;;4992698;28;657;-67
2022/03/10 08:36:50;;;;;;;;;;;20.50;52.50;;;;;;4992684;28;1247;-67
2022/03/10 08:39:15;;;;;;;;;;;20.50;52.30;;;;;;4992435;28;1212;-67
2022/03/10 08:41:41;;;;;;;;;;;20.60;52.30;;;;;;4993899;28;816;-67
2022/03/10 08:44:06;;;;;;;;;;;20.60;52.20;;;;;;4993603;28;1945;-67
2022/03/10 08:46:32;;;;;;;;;;;20.70;52.10;;;;;;4993733;28;894;-67
2022/03/10 08:48:58;;;;;;;;;;;20.70;52.10;;;;;;4992171;28;1447;-67
2022/03/10 08:51:23;;;;;;;;;;;20.70;52.00;;;;;;4993513;28;1283;-67
2022/03/10 08:53:48;;;;;;;;;;;20.80;52.00;;;;;;4993246;28;947;-67
2022/03/10 08:56:14;;;;;;;;;;;20.80;52.00;;;;;;4993911;28;1001;-67
2022/03/10 08:58:39;;;;;;;;;;;20.80;52.00;;;;;;4993487;28;1077;-67
2022/03/10 09:01:05;;;;;;;;;;;20.80;52.00;;;;;;4993491;28;1347;-67
2022/03/10 09:03:30;;;;;;;;;;;20.80;52.60;;;;;;4993795;28;1902;-67
2022/03/10 09:05:56;;;;;;;;;;;20.90;52.00;;;;;;4993739;28;1097;-67
2022/03/10 09:08:21;;;;;;;;;;;20.80;52.10;;;;;;4993604;28;1018;-67
2022/03/10 09:10:46;;;;;;;;;;;20.90;52.20;;;;;;4993294;28;1307;-67
2022/03/10 09:13:12;;;;;;;;;;;20.90;52.30;;;;;;4984650;28;1311;-67
2022/03/10 09:15:37;;;;;;;;;;;20.80;52.20;;;;;;4977360;28;1109;-67
2022/03/10 09:18:03;;;;;;;;;;;20.80;52.20;;;;;;4982499;28;1116;-66
2022/03/10 09:20:28;;;;;;;;;;;20.80;52.30;;;;;;4982538;28;1319;-66
2022/03/10 09:22:54;;;;;;;;;;;20.80;52.20;;;;;;4992715;28;1960;-67
2022/03/10 09:25:19;;;;;;;;;;;20.80;52.20;;;;;;4992848;28;946;-67
2022/03/10 09:27:45;;;;;;;;;;;20.80;52.20;;;;;;4992682;28;906;-66
2022/03/10 09:30:11;;;;;;;;;;;20.70;52.30;;;;;;4991110;28;1221;-67
2022/03/10 09:32:37;;;;;;;;;;;20.80;52.30;;;;;;4992861;28;1021;-67
2022/03/10 09:35:03;;;;;;;;;;;20.70;52.30;;;;;;4992816;28;823;-67
2022/03/10 09:37:29;;;;;;;;;;;20.70;52.40;;;;;;4991441;28;1183;-67
2022/03/10 09:39:54;;;;;;;;;;;20.70;52.40;;;;;;4992441;28;1188;-67
2022/03/10 09:42:20;;;;;;;;;;;20.70;52.50;;;;;;4993079;28;800;-67
2022/03/10 09:44:47;;;;;;;;;;;20.70;52.50;;;;;;4991255;28;1952;-67
2022/03/10 09:47:13;;;;;;;;;;;20.60;52.60;;;;;;4991475;28;820;-67
2022/03/10 09:49:40;;;;;;;;;;;20.60;52.60;;;;;;4992185;28;1182;-67
2022/03/10 09:52:08;;;;;;;;;;;20.60;52.70;;;;;;4992585;28;855;-67
2022/03/10 09:54:33;;;;;;;;;;;20.60;52.80;;;;;;4992476;28;828;-67
2022/03/10 09:56:59;;;;;;;;;;;20.60;52.90;;;;;;4985650;28;2161;-67
2022/03/10 09:59:27;;;;;;;;;;;20.50;52.90;;;;;;4986116;28;1825;-67
2022/03/10 10:01:54;;;;;;;;;;;20.50;53.00;;;;;;4992228;28;1202;-67
2022/03/10 10:04:20;;;;;;;;;;;20.50;53.10;;;;;;4994026;28;1992;-66
2022/03/10 10:07:01;;;;;;;;;;;20.50;53.10;;;;;;4995955;28;823;-67
2022/03/10 10:09:39;;;;;;;;;;;20.40;53.20;;;;;;4996060;28;1269;-67
2022/03/10 10:12:05;;;;;;;;;;;20.40;53.30;;;;;;4995763;28;1147;-67
2022/03/10 10:14:37;;;;;;;;;;;20.40;53.30;;;;;;4995944;28;900;-67
2022/03/10 10:17:02;;;;;;;;;;;20.40;53.40;;;;;;4991280;28;2157;-67
2022/03/10 10:19:28;;;;;;;;;;;20.30;53.40;;;;;;4990848;28;1911;-67
2022/03/10 10:22:09;;;;;;;;;;;20.30;53.40;;;;;;4977955;28;1628;-67
2022/03/10 10:24:36;;;;;;;;;;;20.30;53.50;;;;;;4994461;28;1898;-67
2022/03/10 10:27:17;;;;;;;;;;;20.30;53.50;;;;;;4995996;28;784;-67
2022/03/10 10:29:50;;;;;;;;;;;20.30;53.60;;;;;;4978063;28;1289;-67
2022/03/10 10:32:26;;;;;;;;;;;20.30;53.60;;;;;;4994497;28;745;-67
2022/03/10 10:35:02;;;;;;;;;;;20.20;53.60;;;;;;4994501;28;819;-67
2022/03/10 10:37:28;;;;;;;;;;;20.20;53.70;;;;;;4995712;28;1242;-67
2022/03/10 10:39:55;;;;;;;;;;;20.20;53.70;;;;;;4995528;28;1313;-67
2022/03/10 10:42:24;;;;;;;;;;;20.20;53.80;;;;;;4994618;28;874;-67
2022/03/10 10:44:50;;;;;;;;;;;20.20;53.80;;;;;;4994481;28;1957;-67
2022/03/10 10:47:15;;;;;;;;;;;20.20;53.90;;;;;;4995752;28;779;-67
2022/03/10 10:49:41;;;;;;;;;;;20.20;54.00;;;;;;4995935;28;1286;-67
2022/03/10 10:52:09;;;;;;;;;;;20.10;54.00;;;;;;4996131;28;803;-66
2022/03/10 10:54:35;;;;;;;;;;;20.10;54.00;;;;;;4994623;28;823;-66
2022/03/10 10:57:01;;;;;;;;;;;20.10;54.10;;;;;;4995719;28;700;-66
2022/03/10 10:59:30;;;;;;;;;;;20.10;54.10;;;;;;4994494;28;1207;-66
2022/03/10 11:02:11;;;;;;;;;;;20.10;54.10;;;;;;4995970;28;831;-66
2022/03/10 11:04:40;;;;;;;;;;;20.00;54.10;;;;;;4995616;28;1973;-66
2022/03/10 11:07:05;;;;;;;;;;;20.00;54.10;;;;;;4994557;28;1017;-66
2022/03/10 11:09:31;;;;;;;;;;;20.00;54.80;;;;;;4995271;28;1291;-66
2022/03/10 11:11:56;;;;;;;;;;;20.00;54.20;;;;;;4995536;28;828;-67
2022/03/10 11:14:22;;;;;;;;;;;20.00;54.20;;;;;;4995391;28;864;-66
2022/03/10 11:16:48;;;;;;;;;;;20.10;54.30;;;;;;4994947;28;1187;-66
2022/03/10 11:19:13;;;;;;;;;;;20.10;54.30;;;;;;4993882;28;1228;-66
2022/03/10 11:21:44;;;;;;;;;;;20.10;54.30;;;;;;4992309;28;1636;-66
2022/03/10 11:24:20;;;;;;;;;;;20.10;54.20;;;;;;4992915;28;1915;-66
2022/03/10 11:26:48;;;;;;;;;;;20.10;54.20;;;;;;4995050;28;1144;-66
2022/03/10 11:29:18;;;;;;;;;;;20.10;54.20;;;;;;4994578;28;1358;-66
2022/03/10 11:31:44;;;;;;;;;;;20.10;54.20;;;;;;4994192;28;1123;-66
2022/03/10 11:34:09;;;;;;;;;;;20.10;54.30;;;;;;4993872;28;864;-66
2022/03/10 11:36:35;;;;;;;;;;;20.10;54.20;;;;;;4993863;28;1103;-66
2022/03/10 11:39:00;;;;;;;;;;;20.10;54.20;;;;;;4990240;28;907;-66
2022/03/10 11:41:26;;;;;;;;;;;20.10;54.20;;;;;;4990823;28;2088;-67
2022/03/10 11:43:59;;;;;;;;;;;20.10;54.30;;;;;;4993711;28;1968;-66
2022/03/10 11:46:28;;;;;;;;;;;20.10;54.30;;;;;;5009882;28;1214;-66
2022/03/10 11:49:00;;;;;;;;;;;20.10;54.20;;;;;;4993454;28;841;-66
2022/03/10 11:51:44;;;;;;;;;;;20.10;54.30;;;;;;4993379;28;1339;-66
2022/03/10 11:54:10;;;;;;;;;;;20.10;54.30;;;;;;4994191;28;962;-66
2022/03/10 11:56:44;;;;;;;;;;;20.10;54.30;;;;;;4993434;28;1224;-66
2022/03/10 11:59:17;;;;;;;;;;;20.00;54.20;;;;;;4994397;28;1212;-66
2022/03/10 12:01:43;;;;;;;;;;;20.00;54.30;;;;;;4994625;28;871;-66
2022/03/10 12:04:18;;;;;;;;;;;20.00;54.30;;;;;;4993065;28;1961;-66
2022/03/10 12:06:46;;;;;;;;;;;20.00;54.30;;;;;;4993458;28;832;-66
2022/03/10 12:09:14;;;;;;;;;;;20.00;54.30;;;;;;4992970;28;1209;-66
2022/03/10 12:11:51;;;;;;;;;;;20.00;54.40;;;;;;4993104;28;1288;-67
2022/03/10 12:14:23;;;;;;;;;;;20.00;54.40;;;;;;4994317;28;839;-67
2022/03/10 12:16:48;;;;;;;;;;;20.00;54.40;;;;;;4992747;28;1178;-67
2022/03/10 12:19:14;;;;;;;;;;;20.00;54.50;;;;;;4993888;28;1205;-68
2022/03/10 12:21:40;;;;;;;;;;;20.00;54.50;;;;;;4994277;28;780;-67
2022/03/10 12:24:05;;;;;;;;;;;20.00;54.50;;;;;;4994125;28;1886;-66
2022/03/10 12:26:31;;;;;;;;;;;20.00;54.50;;;;;;4993866;28;1017;-66
2022/03/10 12:28:58;;;;;;;;;;;20.00;54.50;;;;;;4992349;28;827;-66
2022/03/10 12:31:24;;;;;;;;;;;20.00;54.50;;;;;;4993860;28;1322;-65
2022/03/10 12:33:51;;;;;;;;;;;20.00;54.50;;;;;;4994051;28;1017;-67
2022/03/10 12:36:43;;;;;;;;;;;20.00;54.40;;;;;;4992619;28;1175;-66
2022/03/10 12:39:09;;;;;;;;;;;20.00;54.40;;;;;;4992395;28;1208;-66
2022/03/10 12:41:36;;;;;;;;;;;20.10;54.40;;;;;;4993894;28;792;-66
2022/03/10 12:44:03;;;;;;;;;;;20.10;54.40;;;;;;4992927;28;1910;-66
2022/03/10 12:46:29;;;;;;;;;;;20.10;54.30;;;;;;4993670;28;891;-69
2022/03/10 12:48:54;;;;;;;;;;;20.10;54.30;;;;;;4992580;28;765;-69
2022/03/10 12:51:21;;;;;;;;;;;20.10;54.30;;;;;;4993321;28;1217;-70
2022/03/10 12:53:46;;;;;;;;;;;20.10;54.30;;;;;;4990377;28;1042;-69
2022/03/10 12:56:11;;;;;;;;;;;20.10;54.30;;;;;;4993219;28;782;-67
2022/03/10 12:58:37;;;;;;;;;;;20.10;54.30;;;;;;4993277;28;694;-67
2022/03/10 13:01:06;;;;;;;;;;;20.10;54.30;;;;;;4991827;28;1198;-66
2022/03/10 13:03:50;;;;;;;;;;;20.10;54.30;;;;;;4993824;28;1968;-66
2022/03/10 13:06:16;;;;;;;;;;;20.10;54.30;;;;;;4993754;28;729;-66
2022/03/10 13:08:43;;;;;;;;;;;20.10;54.20;;;;;;4993107;28;1049;-70
2022/03/10 13:11:09;;;;;;;;;;;20.10;54.30;;;;;;4992262;28;1282;-69
2022/03/10 13:13:34;;;;;;;;;;;20.10;54.30;;;;;;4993422;28;927;-70
2022/03/10 13:16:03;;;;;;;;;;;20.10;54.30;;;;;;4976120;28;1167;-69
2022/03/10 13:18:37;;;;;;;;;;;20.10;54.40;;;;;;4991896;28;1192;-70
2022/03/10 13:21:05;;;;;;;;;;;20.10;54.40;;;;;;4989205;28;2064;-68
2022/03/10 13:23:30;;;;;;;;;;;20.10;54.50;;;;;;4991658;28;1982;-67
2022/03/10 13:25:55;;;;;;;;;;;20.10;54.50;;;;;;4992928;28;1195;-68
2022/03/10 13:28:24;;;;;;;;;;;20.00;54.40;;;;;;4992870;28;1132;-67
2022/03/10 13:30:50;;;;;;;;;;;20.00;54.40;;;;;;4992560;28;1295;-67
2022/03/10 13:33:17;;;;;;;;;;;20.00;54.50;;;;;;4992555;28;1115;-70
2022/03/10 13:35:43;;;;;;;;;;;20.00;54.50;;;;;;4992872;28;1100;-70
2022/03/10 13:38:13;;;;;;;;;;;20.00;54.50;;;;;;4991675;28;895;-69
2022/03/10 13:40:39;;;;;;;;;;;20.00;54.60;;;;;;4995239;28;1163;-68
2022/03/10 13:43:04;;;;;;;;;;;20.00;54.60;;;;;;4995779;28;1898;-67
2022/03/10 13:45:39;;;;;;;;;;;20.00;54.60;;;;;;4997009;28;820;-66
2022/03/10 13:48:05;;;;;;;;;;;19.90;54.60;;;;;;4996873;28;811;-67
2022/03/10 13:50:31;;;;;;;;;;;19.90;54.60;;;;;;4996405;28;1207;-68
2022/03/10 13:52:57;;;;;;;;;;;19.90;54.70;;;;;;4974884;28;2247;-67
2022/03/10 13:55:33;;;;;;;;;;;19.90;54.70;;;;;;5009687;28;1254;-67
2022/03/10 13:57:58;;;;;;;;;;;19.90;54.70;;;;;;4996278;28;1095;-67
2022/03/10 14:00:27;;;;;;;;;;;19.90;54.70;;;;;;4995810;28;1314;-67
2022/03/10 14:02:53;;;;;;;;;;;19.90;54.70;;;;;;4993204;28;1990;-67
2022/03/10 14:05:20;;;;;;;;;;;19.90;54.80;;;;;;4986736;28;2163;-67
2022/03/10 14:08:10;;;;;;;;;;;19.90;54.80;;;;;;4991203;28;2283;-67
2022/03/10 14:10:35;;;;;;;;;;;19.90;54.80;;;;;;4983176;28;1953;-67
2022/03/10 14:13:01;;;;;;;;;;;19.90;54.90;;;;;;4993307;28;1819;-67
2022/03/10 14:15:27;;;;;;;;;;;19.80;54.80;;;;;;4994978;28;1549;-67
2022/03/10 14:17:54;;;;;;;;;;;19.90;54.90;;;;;;4994613;28;1433;-67
2022/03/10 14:20:20;;;;;;;;;;;19.80;54.90;;;;;;4993994;28;1562;-67
2022/03/10 14:22:46;;;;;;;;;;;19.80;54.90;;;;;;4989893;28;2246;-69
2022/03/10 14:25:12;;;;;;;;;;;19.80;55.00;;;;;;4991803;28;1956;-68
2022/03/10 14:27:39;;;;;;;;;;;19.80;55.00;;;;;;4993139;28;1171;-67
2022/03/10 14:30:08;;;;;;;;;;;19.80;55.00;;;;;;4994697;28;1273;-67
2022/03/10 14:32:34;;;;;;;;;;;19.80;55.00;;;;;;4994919;28;843;-68
2022/03/10 14:35:00;;;;;;;;;;;19.80;55.00;;;;;;4996125;28;787;-64